Flight Track Log - Related Links

Times and Time Zones

All times are in EDT time to prevent confusion due to time zone crossing. See the UAL3740 flight status page for this flight to view local times or setup timezone preferences in your user account.

Time Position Orientation Groundspeed Altitude Reporting Facility
EDT Latitude Longitude Course Direction KTS MPH feet Rate Location/Type
Mon 08:29:05 AM 38.9833 -77.4500 349° North 191 220 2,300  Level Potomac TRACON
Mon 08:29:59 AM 39.0500 -77.4667 349° North 249 287 4,500 2,632 Climbing Potomac TRACON
Mon 08:30:59 AM 39.1000 -77.4500 15° North 267 307 7,300 2,678 Climbing Potomac TRACON
Mon 08:32:00 AM 39.1667 -77.3833 38° Northeast 290 334 9,900 1,835 Climbing Potomac TRACON
Mon 08:33:00 AM 39.1333 -77.2833 113° Southeast 325 374 11,000 1,550 Climbing Potomac TRACON
Mon 08:34:00 AM 39.1000 -77.1833 113° Southeast 335 386 13,000 2,000 Climbing Potomac TRACON
Mon 08:36:18 AM 39.0961 -76.8967 91° East 366 421 17,600 1,818 Climbing Washington Center
Mon 08:37:18 AM 39.1078 -76.7606 84° East 371 427 19,000 1,650 Climbing Washington Center
Mon 08:38:18 AM 39.1175 -76.6217 85° East 376 433 20,900 1,850 Climbing Washington Center
Mon 08:39:18 AM 39.1289 -76.4800 84° East 388 447 22,700 1,050 Climbing Washington Center
Mon 08:40:18 AM 39.1403 -76.3303 84° East 399 459 23,000 150 Climbing Washington Center
Mon 08:41:18 AM 39.1517 -76.1858 84° East 405 466 23,000  Level Washington Center
Mon 08:42:18 AM 39.1750 -76.0414 78° East 405 466 23,000 450 Level Washington Center
Mon 08:43:18 AM 39.1944 -75.8917 80° East 410 472 23,900 1,050 Climbing Washington Center
Mon 08:44:18 AM 39.2758 -75.7711 49° Northeast 410 472 25,100 1,200 Climbing Washington Center
Mon 08:45:18 AM 39.3678 -75.6561 44° Northeast 433 498 26,300 1,100 Climbing Washington Center
Mon 08:46:18 AM 39.4614 -75.5378 44° Northeast 451 519 27,300 1,050 Climbing Washington Center
Mon 08:47:18 AM 39.5550 -75.4167 45° Northeast 462 532 28,400 1,000 Climbing Washington Center
Mon 08:48:18 AM 39.6506 -75.2869 46° Northeast 474 545 29,300 850 Climbing Washington Center
Mon 08:49:18 AM 39.7461 -75.1544 47° Northeast 487 560 30,100 1,023 Climbing Washington Center
Mon 08:50:27 AM 39.8611 -74.9842 49° Northeast 514 592 31,500 977 Climbing New York Center
Mon 08:51:27 AM 39.9597 -74.8439 47° Northeast 527 606 32,200 750 Climbing New York Center
Mon 08:52:27 AM 40.0583 -74.7033 47° Northeast 528 608 33,000 397 Climbing New York Center
Mon 08:53:28 AM 40.1481 -74.5725 48° Northeast 528 608 33,000  Level New York Center
Mon 08:54:29 AM 40.2247 -74.3975 60° Northeast 544 626 33,000 -946 Level New York Center
Mon 08:56:51 AM 40.3814 -73.9439 65° Northeast 532 612 29,800 -1,574 Descending Boston Center
Mon 08:57:51 AM 40.4378 -73.7814 65° Northeast 508 585 27,700 -1,400 Descending Boston Center
Mon 08:58:51 AM 40.4831 -73.6325 68° East 492 566 27,000 -350 Descending Boston Center
Mon 08:59:51 AM 40.5367 -73.4750 66° East 478 550 27,000 -500 Level Boston Center
Mon 09:00:51 AM 40.5922 -73.3119 66° East 478 550 26,000 -1,500 Descending Boston Center
Mon 09:01:51 AM 40.6456 -73.1431 67° East 478 550 24,000 -1,950 Descending Boston Center
Mon 09:02:51 AM 40.6986 -72.9958 65° Northeast 468 539 22,100 -2,000 Descending Boston Center
Mon 09:03:51 AM 40.7533 -72.8428 65° Northeast 431 496 20,000 -1,850 Descending Boston Center
Mon 09:04:51 AM 40.7994 -72.7006 67° East 417 480 18,400 -1,250 Descending Boston Center
Mon 09:05:51 AM 40.8372 -72.5744 68° East 409 471 17,500 -1,250 Descending Boston Center
Mon 09:06:51 AM 40.8811 -72.4483 65° Northeast 403 464 15,900 -1,585 Descending Boston Center
Mon 09:07:37 AM 40.9144 -72.3550 65° Northeast 369 425 14,700 -1,685 Descending Boston Center
Mon 09:08:20 AM 40.9456 -72.2561 67° East 369 425 13,400 -1,622 Descending Boston Center
Mon 09:08:51 AM 40.9622 -72.2008 68° East 370 426 12,700 -1,562 Descending Boston Center
Mon 09:09:33 AM 40.9953 -72.1100 64° Northeast 356 410 11,500 -1,600 Descending Boston Center
Mon 09:09:51 AM 41.0014 -72.0797 75° East 356 410 11,100 -500 Descending Boston Center
Mon 09:10:33 AM 41.0303 -71.9917 66° East 350 403 11,000 -100 Descending Boston Center
Mon 09:10:51 AM 41.0386 -71.9639 68° East 351 404 11,000 -109 Level Boston Center
Mon 09:11:28 AM 41.0694 -71.8950 59° Northeast 342 394 10,900 -500 Descending Boston Center
Mon 09:11:51 AM 41.0964 -71.8533 49° Northeast 337 388 10,500 -800 Descending Boston Center
Mon 09:12:28 AM 41.1253 -71.8092 49° Northeast 302 348 10,100 -1,286 Descending Boston Center
Mon 09:13:29 AM 41.1769 -71.7231 51° Northeast 279 321 8,400 -1,475 Descending Boston Center
Mon 09:14:30 AM 41.2242 -71.6481 50° Northeast 265 305 7,100 -1,488 Descending Boston Center
Mon 09:15:30 AM 41.2697 -71.5756 50° Northeast 255 293 5,400 -992 Descending Boston Center
Mon 09:16:37 AM 41.3150 -71.5033 50° Northeast 243 280 5,000 -197 Descending Boston Center
Mon 09:17:32 AM 41.3539 -71.4389 51° Northeast 241 277 5,000  Level Boston Center
Mon 09:18:38 AM 41.4167 -71.4519 351° North 265 305 5,000 -271 Level Boston Center
Mon 09:19:45 AM 41.4525 -71.5261 303° West 207 238 4,400 -984 Descending Boston Center
Mon 09:20:46 AM 41.4803 -71.5894 300° West 196 226 2,900 -1,190 Descending Boston Center
Mon 09:21:46 AM 41.5178 -71.6000 348° North 168 193 2,000 -470 Descending Boston Center
Mon 09:22:41 AM 41.5550 -71.5689 32° Northeast 161 185 2,000  Level Boston Center
Mon 09:23:48 AM 41.5986 -71.5322 32° Northeast 162 186 2,000  Level Boston Center

Login

Don't have an account? Register now (free) for customized features, flight alerts, and more!